sensor_id;sensor_type;location;lat;lon;timestamp;P1;durP1;ratioP1;P2;durP2;ratioP2
51836;SDS011;38941;53.254;6.600;2022-07-22T00:01:39;6.75;;;1.90;;
51836;SDS011;38941;53.254;6.600;2022-07-22T00:03:39;9.77;;;3.08;;
51836;SDS011;38941;53.254;6.600;2022-07-22T00:05:40;10.20;;;2.50;;
51836;SDS011;38941;53.254;6.600;2022-07-22T00:07:41;8.60;;;2.10;;
51836;SDS011;38941;53.254;6.600;2022-07-22T00:09:42;8.90;;;2.65;;
51836;SDS011;38941;53.254;6.600;2022-07-22T00:11:43;6.93;;;1.80;;
51836;SDS011;38941;53.254;6.600;2022-07-22T00:13:44;5.40;;;1.90;;
51836;SDS011;38941;53.254;6.600;2022-07-22T00:15:46;13.13;;;2.75;;
51836;SDS011;38941;53.254;6.600;2022-07-22T00:17:48;9.27;;;2.28;;
51836;SDS011;38941;53.254;6.600;2022-07-22T00:19:49;11.63;;;2.22;;
51836;SDS011;38941;53.254;6.600;2022-07-22T00:21:50;7.32;;;2.30;;
51836;SDS011;38941;53.254;6.600;2022-07-22T00:23:51;10.38;;;1.98;;
51836;SDS011;38941;53.254;6.600;2022-07-22T00:25:52;9.32;;;2.38;;
51836;SDS011;38941;53.254;6.600;2022-07-22T00:27:54;11.48;;;2.10;;
51836;SDS011;38941;53.254;6.600;2022-07-22T00:29:54;11.00;;;2.03;;
51836;SDS011;38941;53.254;6.600;2022-07-22T00:31:55;9.60;;;1.85;;
51836;SDS011;38941;53.254;6.600;2022-07-22T00:33:56;9.52;;;1.90;;
51836;SDS011;38941;53.254;6.600;2022-07-22T00:35:57;8.23;;;1.83;;
51836;SDS011;38941;53.254;6.600;2022-07-22T00:37:57;7.15;;;1.73;;
51836;SDS011;38941;53.254;6.600;2022-07-22T00:39:58;8.85;;;1.63;;
51836;SDS011;38941;53.254;6.600;2022-07-22T00:41:59;4.57;;;1.58;;
51836;SDS011;38941;53.254;6.600;2022-07-22T00:44:00;6.97;;;1.52;;
51836;SDS011;38941;53.254;6.600;2022-07-22T00:46:03;13.80;;;2.97;;
51836;SDS011;38941;53.254;6.600;2022-07-22T00:48:04;9.95;;;1.60;;
51836;SDS011;38941;53.254;6.600;2022-07-22T00:50:05;4.00;;;1.27;;
51836;SDS011;38941;53.254;6.600;2022-07-22T00:52:06;7.53;;;1.27;;
51836;SDS011;38941;53.254;6.600;2022-07-22T00:54:07;7.65;;;2.28;;
51836;SDS011;38941;53.254;6.600;2022-07-22T00:56:09;5.45;;;1.40;;
51836;SDS011;38941;53.254;6.600;2022-07-22T00:58:10;6.03;;;1.30;;
51836;SDS011;38941;53.254;6.600;2022-07-22T01:00:12;6.68;;;1.90;;
51836;SDS011;38941;53.254;6.600;2022-07-22T01:02:16;3.70;;;1.10;;
51836;SDS011;38941;53.254;6.600;2022-07-22T01:04:17;4.78;;;1.65;;
51836;SDS011;38941;53.254;6.600;2022-07-22T01:06:18;9.68;;;1.35;;
51836;SDS011;38941;53.254;6.600;2022-07-22T01:08:19;6.25;;;1.60;;
51836;SDS011;38941;53.254;6.600;2022-07-22T01:10:21;6.55;;;1.20;;
51836;SDS011;38941;53.254;6.600;2022-07-22T01:12:22;7.93;;;1.38;;
51836;SDS011;38941;53.254;6.600;2022-07-22T01:14:22;5.75;;;1.60;;
51836;SDS011;38941;53.254;6.600;2022-07-22T01:16:23;5.55;;;1.40;;
51836;SDS011;38941;53.254;6.600;2022-07-22T01:18:24;7.05;;;1.30;;
51836;SDS011;38941;53.254;6.600;2022-07-22T01:20:25;3.88;;;1.10;;
51836;SDS011;38941;53.254;6.600;2022-07-22T01:22:26;4.70;;;1.10;;
51836;SDS011;38941;53.254;6.600;2022-07-22T01:24:27;6.63;;;1.20;;
51836;SDS011;38941;53.254;6.600;2022-07-22T01:26:28;4.28;;;1.10;;
51836;SDS011;38941;53.254;6.600;2022-07-22T01:28:29;3.33;;;2.03;;
51836;SDS011;38941;53.254;6.600;2022-07-22T01:30:29;5.68;;;1.25;;
51836;SDS011;38941;53.254;6.600;2022-07-22T01:32:30;6.13;;;1.75;;
51836;SDS011;38941;53.254;6.600;2022-07-22T01:34:31;3.42;;;1.02;;
51836;SDS011;38941;53.254;6.600;2022-07-22T01:36:32;5.72;;;0.90;;
51836;SDS011;38941;53.254;6.600;2022-07-22T01:38:33;5.47;;;1.08;;
51836;SDS011;38941;53.254;6.600;2022-07-22T01:40:34;5.97;;;1.23;;
51836;SDS011;38941;53.254;6.600;2022-07-22T01:42:35;6.20;;;1.05;;
51836;SDS011;38941;53.254;6.600;2022-07-22T01:44:36;4.47;;;1.20;;
51836;SDS011;38941;53.254;6.600;2022-07-22T01:46:37;3.72;;;1.33;;
51836;SDS011;38941;53.254;6.600;2022-07-22T01:48:39;4.60;;;1.95;;
51836;SDS011;38941;53.254;6.600;2022-07-22T01:50:40;4.93;;;1.10;;
51836;SDS011;38941;53.254;6.600;2022-07-22T01:52:42;7.43;;;1.55;;
51836;SDS011;38941;53.254;6.600;2022-07-22T01:54:42;3.33;;;0.95;;
51836;SDS011;38941;53.254;6.600;2022-07-22T01:56:43;5.30;;;0.90;;
51836;SDS011;38941;53.254;6.600;2022-07-22T01:58:45;1.80;;;0.95;;
51836;SDS011;38941;53.254;6.600;2022-07-22T02:00:46;5.03;;;1.77;;
51836;SDS011;38941;53.254;6.600;2022-07-22T02:02:46;5.68;;;1.27;;
51836;SDS011;38941;53.254;6.600;2022-07-22T02:04:47;3.80;;;1.20;;
51836;SDS011;38941;53.254;6.600;2022-07-22T02:06:48;4.28;;;0.90;;
51836;SDS011;38941;53.254;6.600;2022-07-22T02:08:49;7.22;;;0.93;;
51836;SDS011;38941;53.254;6.600;2022-07-22T02:10:50;4.32;;;0.85;;
51836;SDS011;38941;53.254;6.600;2022-07-22T02:12:51;7.30;;;1.30;;
51836;SDS011;38941;53.254;6.600;2022-07-22T02:14:52;3.03;;;0.88;;
51836;SDS011;38941;53.254;6.600;2022-07-22T02:16:52;3.47;;;1.10;;
51836;SDS011;38941;53.254;6.600;2022-07-22T02:18:53;2.33;;;1.17;;
51836;SDS011;38941;53.254;6.600;2022-07-22T02:20:54;6.97;;;1.30;;
51836;SDS011;38941;53.254;6.600;2022-07-22T02:22:55;5.45;;;1.05;;
51836;SDS011;38941;53.254;6.600;2022-07-22T02:24:55;7.18;;;1.25;;
51836;SDS011;38941;53.254;6.600;2022-07-22T02:26:56;5.50;;;1.30;;
51836;SDS011;38941;53.254;6.600;2022-07-22T02:28:57;4.38;;;1.10;;
51836;SDS011;38941;53.254;6.600;2022-07-22T02:30:58;8.85;;;1.17;;
51836;SDS011;38941;53.254;6.600;2022-07-22T02:32:59;5.07;;;1.02;;
51836;SDS011;38941;53.254;6.600;2022-07-22T02:35:00;4.78;;;1.02;;
51836;SDS011;38941;53.254;6.600;2022-07-22T02:37:01;6.18;;;1.27;;
51836;SDS011;38941;53.254;6.600;2022-07-22T02:39:02;5.28;;;0.88;;
51836;SDS011;38941;53.254;6.600;2022-07-22T02:41:03;6.20;;;1.60;;
51836;SDS011;38941;53.254;6.600;2022-07-22T02:43:04;5.90;;;1.20;;
51836;SDS011;38941;53.254;6.600;2022-07-22T02:45:07;5.13;;;1.20;;
51836;SDS011;38941;53.254;6.600;2022-07-22T02:47:08;10.85;;;1.60;;
51836;SDS011;38941;53.254;6.600;2022-07-22T02:49:09;5.78;;;1.40;;
51836;SDS011;38941;53.254;6.600;2022-07-22T02:51:10;4.57;;;1.33;;
51836;SDS011;38941;53.254;6.600;2022-07-22T02:53:11;5.03;;;1.08;;
51836;SDS011;38941;53.254;6.600;2022-07-22T02:55:11;6.15;;;1.50;;
51836;SDS011;38941;53.254;6.600;2022-07-22T02:57:12;6.63;;;2.00;;
51836;SDS011;38941;53.254;6.600;2022-07-22T02:59:13;4.00;;;1.00;;
51836;SDS011;38941;53.254;6.600;2022-07-22T03:01:13;9.98;;;1.30;;
51836;SDS011;38941;53.254;6.600;2022-07-22T03:03:14;7.40;;;1.48;;
51836;SDS011;38941;53.254;6.600;2022-07-22T03:05:15;3.55;;;1.42;;
51836;SDS011;38941;53.254;6.600;2022-07-22T03:07:16;2.88;;;1.10;;
51836;SDS011;38941;53.254;6.600;2022-07-22T03:09:16;5.70;;;1.38;;
51836;SDS011;38941;53.254;6.600;2022-07-22T03:11:17;4.97;;;1.30;;
51836;SDS011;38941;53.254;6.600;2022-07-22T03:13:18;3.35;;;1.05;;
51836;SDS011;38941;53.254;6.600;2022-07-22T03:15:19;11.20;;;1.88;;
51836;SDS011;38941;53.254;6.600;2022-07-22T03:17:19;3.03;;;1.20;;
51836;SDS011;38941;53.254;6.600;2022-07-22T03:19:20;4.93;;;1.27;;
51836;SDS011;38941;53.254;6.600;2022-07-22T03:21:21;5.88;;;1.20;;
51836;SDS011;38941;53.254;6.600;2022-07-22T03:23:22;3.72;;;0.75;;
51836;SDS011;38941;53.254;6.600;2022-07-22T03:25:22;6.68;;;1.30;;
51836;SDS011;38941;53.254;6.600;2022-07-22T03:27:23;3.63;;;1.02;;
51836;SDS011;38941;53.254;6.600;2022-07-22T03:29:24;3.58;;;1.10;;
51836;SDS011;38941;53.254;6.600;2022-07-22T03:31:24;2.53;;;1.10;;
51836;SDS011;38941;53.254;6.600;2022-07-22T03:33:26;4.22;;;1.17;;
51836;SDS011;38941;53.254;6.600;2022-07-22T03:35:26;3.13;;;0.93;;
51836;SDS011;38941;53.254;6.600;2022-07-22T03:37:27;5.30;;;1.20;;
51836;SDS011;38941;53.254;6.600;2022-07-22T03:39:28;6.25;;;1.25;;
51836;SDS011;38941;53.254;6.600;2022-07-22T03:41:29;4.20;;;1.77;;
51836;SDS011;38941;53.254;6.600;2022-07-22T03:43:29;8.88;;;1.15;;
51836;SDS011;38941;53.254;6.600;2022-07-22T03:45:30;5.70;;;0.95;;
51836;SDS011;38941;53.254;6.600;2022-07-22T03:47:32;8.65;;;0.95;;
51836;SDS011;38941;53.254;6.600;2022-07-22T03:49:33;3.55;;;1.20;;
51836;SDS011;38941;53.254;6.600;2022-07-22T03:51:34;6.78;;;1.15;;
51836;SDS011;38941;53.254;6.600;2022-07-22T03:53:34;8.40;;;2.00;;
51836;SDS011;38941;53.254;6.600;2022-07-22T03:55:35;4.30;;;1.17;;
51836;SDS011;38941;53.254;6.600;2022-07-22T03:57:36;11.15;;;1.30;;
51836;SDS011;38941;53.254;6.600;2022-07-22T03:59:37;1.70;;;1.20;;
51836;SDS011;38941;53.254;6.600;2022-07-22T04:01:38;6.45;;;1.40;;
51836;SDS011;38941;53.254;6.600;2022-07-22T04:03:39;7.53;;;1.25;;
51836;SDS011;38941;53.254;6.600;2022-07-22T04:05:40;6.10;;;1.10;;
51836;SDS011;38941;53.254;6.600;2022-07-22T04:07:41;7.43;;;1.67;;
51836;SDS011;38941;53.254;6.600;2022-07-22T04:09:43;3.05;;;0.93;;
51836;SDS011;38941;53.254;6.600;2022-07-22T04:11:43;2.20;;;0.77;;
51836;SDS011;38941;53.254;6.600;2022-07-22T04:13:44;2.00;;;0.93;;
51836;SDS011;38941;53.254;6.600;2022-07-22T04:15:45;3.08;;;0.98;;
51836;SDS011;38941;53.254;6.600;2022-07-22T04:17:45;2.97;;;1.08;;
51836;SDS011;38941;53.254;6.600;2022-07-22T04:19:47;4.57;;;1.88;;
51836;SDS011;38941;53.254;6.600;2022-07-22T04:21:48;4.65;;;1.27;;
51836;SDS011;38941;53.254;6.600;2022-07-22T04:23:49;4.85;;;1.25;;
51836;SDS011;38941;53.254;6.600;2022-07-22T04:25:50;5.93;;;1.00;;
51836;SDS011;38941;53.254;6.600;2022-07-22T04:27:51;2.10;;;0.70;;
51836;SDS011;38941;53.254;6.600;2022-07-22T04:29:53;6.32;;;1.25;;
51836;SDS011;38941;53.254;6.600;2022-07-22T04:31:54;2.97;;;1.00;;
51836;SDS011;38941;53.254;6.600;2022-07-22T04:33:56;8.15;;;1.20;;
51836;SDS011;38941;53.254;6.600;2022-07-22T04:35:57;7.07;;;2.03;;
51836;SDS011;38941;53.254;6.600;2022-07-22T04:37:59;11.73;;;1.00;;
51836;SDS011;38941;53.254;6.600;2022-07-22T04:40:00;3.40;;;1.17;;
51836;SDS011;38941;53.254;6.600;2022-07-22T04:42:01;6.55;;;1.23;;
51836;SDS011;38941;53.254;6.600;2022-07-22T04:44:01;3.80;;;1.00;;
51836;SDS011;38941;53.254;6.600;2022-07-22T04:46:02;3.08;;;1.02;;
51836;SDS011;38941;53.254;6.600;2022-07-22T04:48:03;3.25;;;1.35;;
51836;SDS011;38941;53.254;6.600;2022-07-22T04:50:04;4.20;;;1.10;;
51836;SDS011;38941;53.254;6.600;2022-07-22T04:52:05;3.63;;;0.80;;
51836;SDS011;38941;53.254;6.600;2022-07-22T04:54:07;4.85;;;1.02;;
51836;SDS011;38941;53.254;6.600;2022-07-22T04:56:08;6.95;;;1.67;;
51836;SDS011;38941;53.254;6.600;2022-07-22T04:58:09;6.60;;;1.02;;
51836;SDS011;38941;53.254;6.600;2022-07-22T05:00:10;6.35;;;0.95;;
51836;SDS011;38941;53.254;6.600;2022-07-22T05:02:11;5.10;;;1.42;;
51836;SDS011;38941;53.254;6.600;2022-07-22T05:04:11;2.78;;;1.00;;
51836;SDS011;38941;53.254;6.600;2022-07-22T05:06:12;3.53;;;1.00;;
51836;SDS011;38941;53.254;6.600;2022-07-22T05:08:13;4.78;;;0.90;;
51836;SDS011;38941;53.254;6.600;2022-07-22T05:10:14;6.90;;;1.25;;
51836;SDS011;38941;53.254;6.600;2022-07-22T05:12:15;5.90;;;1.10;;
51836;SDS011;38941;53.254;6.600;2022-07-22T05:14:16;4.57;;;0.95;;
51836;SDS011;38941;53.254;6.600;2022-07-22T05:16:17;3.28;;;1.30;;
51836;SDS011;38941;53.254;6.600;2022-07-22T05:18:18;4.65;;;1.08;;
51836;SDS011;38941;53.254;6.600;2022-07-22T05:20:18;3.55;;;1.08;;
51836;SDS011;38941;53.254;6.600;2022-07-22T05:22:20;4.03;;;1.13;;
51836;SDS011;38941;53.254;6.600;2022-07-22T05:24:21;5.80;;;1.63;;
51836;SDS011;38941;53.254;6.600;2022-07-22T05:26:22;3.95;;;1.00;;
51836;SDS011;38941;53.254;6.600;2022-07-22T05:28:24;3.83;;;1.10;;
51836;SDS011;38941;53.254;6.600;2022-07-22T05:30:25;4.57;;;0.95;;
51836;SDS011;38941;53.254;6.600;2022-07-22T05:32:25;3.80;;;1.10;;
51836;SDS011;38941;53.254;6.600;2022-07-22T05:34:26;4.57;;;1.00;;
51836;SDS011;38941;53.254;6.600;2022-07-22T05:36:28;2.63;;;0.70;;
51836;SDS011;38941;53.254;6.600;2022-07-22T05:38:31;7.97;;;1.20;;
51836;SDS011;38941;53.254;6.600;2022-07-22T05:40:33;4.78;;;0.80;;
51836;SDS011;38941;53.254;6.600;2022-07-22T05:42:33;4.47;;;1.17;;
51836;SDS011;38941;53.254;6.600;2022-07-22T05:44:35;6.38;;;1.10;;
51836;SDS011;38941;53.254;6.600;2022-07-22T05:46:37;3.95;;;1.00;;
51836;SDS011;38941;53.254;6.600;2022-07-22T05:48:37;2.70;;;0.70;;
51836;SDS011;38941;53.254;6.600;2022-07-22T05:50:38;6.28;;;1.85;;
51836;SDS011;38941;53.254;6.600;2022-07-22T05:52:39;3.80;;;0.95;;
51836;SDS011;38941;53.254;6.600;2022-07-22T05:54:40;7.03;;;1.00;;
51836;SDS011;38941;53.254;6.600;2022-07-22T05:56:40;2.67;;;1.13;;
51836;SDS011;38941;53.254;6.600;2022-07-22T05:58:41;8.80;;;1.88;;
51836;SDS011;38941;53.254;6.600;2022-07-22T06:00:43;5.18;;;1.23;;
51836;SDS011;38941;53.254;6.600;2022-07-22T06:02:43;5.85;;;1.50;;
51836;SDS011;38941;53.254;6.600;2022-07-22T06:04:44;6.35;;;1.00;;
51836;SDS011;38941;53.254;6.600;2022-07-22T06:06:45;5.00;;;0.90;;
51836;SDS011;38941;53.254;6.600;2022-07-22T06:08:46;4.82;;;1.10;;
51836;SDS011;38941;53.254;6.600;2022-07-22T06:10:47;3.88;;;1.30;;
51836;SDS011;38941;53.254;6.600;2022-07-22T06:12:48;3.97;;;1.00;;
51836;SDS011;38941;53.254;6.600;2022-07-22T06:14:49;6.57;;;1.10;;
51836;SDS011;38941;53.254;6.600;2022-07-22T06:16:50;2.20;;;1.08;;
51836;SDS011;38941;53.254;6.600;2022-07-22T06:18:51;3.25;;;0.90;;
51836;SDS011;38941;53.254;6.600;2022-07-22T06:20:51;6.93;;;1.33;;
51836;SDS011;38941;53.254;6.600;2022-07-22T06:22:53;2.33;;;1.10;;
51836;SDS011;38941;53.254;6.600;2022-07-22T06:24:54;3.95;;;1.52;;
51836;SDS011;38941;53.254;6.600;2022-07-22T06:26:55;5.32;;;0.90;;
51836;SDS011;38941;53.254;6.600;2022-07-22T06:28:56;5.38;;;1.65;;
51836;SDS011;38941;53.254;6.600;2022-07-22T06:30:58;1.77;;;0.68;;
51836;SDS011;38941;53.254;6.600;2022-07-22T06:32:58;5.95;;;1.52;;
51836;SDS011;38941;53.254;6.600;2022-07-22T06:34:59;7.22;;;1.25;;
51836;SDS011;38941;53.254;6.600;2022-07-22T06:37:00;9.65;;;1.27;;
51836;SDS011;38941;53.254;6.600;2022-07-22T06:39:00;2.83;;;0.82;;
51836;SDS011;38941;53.254;6.600;2022-07-22T06:41:01;3.28;;;1.10;;
51836;SDS011;38941;53.254;6.600;2022-07-22T06:43:03;5.70;;;1.13;;
51836;SDS011;38941;53.254;6.600;2022-07-22T06:45:10;5.78;;;0.98;;
51836;SDS011;38941;53.254;6.600;2022-07-22T06:47:11;3.40;;;1.17;;
51836;SDS011;38941;53.254;6.600;2022-07-22T06:49:12;5.22;;;1.55;;
51836;SDS011;38941;53.254;6.600;2022-07-22T06:51:13;3.83;;;1.58;;
51836;SDS011;38941;53.254;6.600;2022-07-22T06:53:15;3.53;;;0.73;;
51836;SDS011;38941;53.254;6.600;2022-07-22T06:55:15;4.38;;;0.98;;
51836;SDS011;38941;53.254;6.600;2022-07-22T06:57:16;10.05;;;1.83;;
51836;SDS011;38941;53.254;6.600;2022-07-22T06:59:17;1.33;;;0.85;;
51836;SDS011;38941;53.254;6.600;2022-07-22T07:01:18;2.78;;;0.95;;
51836;SDS011;38941;53.254;6.600;2022-07-22T07:03:19;3.72;;;0.93;;
51836;SDS011;38941;53.254;6.600;2022-07-22T07:05:20;4.15;;;0.80;;
51836;SDS011;38941;53.254;6.600;2022-07-22T07:07:21;3.22;;;1.10;;
51836;SDS011;38941;53.254;6.600;2022-07-22T07:09:22;5.82;;;1.40;;
51836;SDS011;38941;53.254;6.600;2022-07-22T07:11:23;2.95;;;0.75;;
51836;SDS011;38941;53.254;6.600;2022-07-22T07:13:24;5.40;;;1.05;;
51836;SDS011;38941;53.254;6.600;2022-07-22T07:15:25;3.15;;;0.70;;
51836;SDS011;38941;53.254;6.600;2022-07-22T07:17:26;1.88;;;0.65;;
51836;SDS011;38941;53.254;6.600;2022-07-22T07:19:27;1.67;;;0.82;;
51836;SDS011;38941;53.254;6.600;2022-07-22T07:21:28;4.55;;;1.23;;
51836;SDS011;38941;53.254;6.600;2022-07-22T07:23:28;7.10;;;1.00;;
51836;SDS011;38941;53.254;6.600;2022-07-22T07:25:30;2.25;;;0.50;;
51836;SDS011;38941;53.254;6.600;2022-07-22T07:27:31;2.60;;;0.85;;
51836;SDS011;38941;53.254;6.600;2022-07-22T07:29:32;1.10;;;0.52;;
51836;SDS011;38941;53.254;6.600;2022-07-22T07:31:32;1.77;;;0.50;;
51836;SDS011;38941;53.254;6.600;2022-07-22T07:33:33;4.43;;;0.82;;
51836;SDS011;38941;53.254;6.600;2022-07-22T07:35:34;7.53;;;0.80;;
51836;SDS011;38941;53.254;6.600;2022-07-22T07:37:35;3.72;;;0.50;;
51836;SDS011;38941;53.254;6.600;2022-07-22T07:39:36;3.15;;;0.50;;
51836;SDS011;38941;53.254;6.600;2022-07-22T07:41:37;1.55;;;0.50;;
51836;SDS011;38941;53.254;6.600;2022-07-22T07:43:39;2.15;;;0.47;;
51836;SDS011;38941;53.254;6.600;2022-07-22T07:45:40;4.75;;;0.73;;
51836;SDS011;38941;53.254;6.600;2022-07-22T07:47:41;5.20;;;0.98;;
51836;SDS011;38941;53.254;6.600;2022-07-22T07:49:42;3.45;;;0.60;;
51836;SDS011;38941;53.254;6.600;2022-07-22T07:51:46;2.28;;;0.95;;
51836;SDS011;38941;53.254;6.600;2022-07-22T07:53:47;1.10;;;0.50;;
51836;SDS011;38941;53.254;6.600;2022-07-22T07:55:48;3.20;;;0.80;;
51836;SDS011;38941;53.254;6.600;2022-07-22T07:57:49;3.58;;;1.05;;
51836;SDS011;38941;53.254;6.600;2022-07-22T07:59:51;3.85;;;0.70;;
51836;SDS011;38941;53.254;6.600;2022-07-22T08:01:51;2.42;;;0.60;;
51836;SDS011;38941;53.254;6.600;2022-07-22T08:03:52;1.02;;;0.40;;
51836;SDS011;38941;53.254;6.600;2022-07-22T08:05:53;2.38;;;1.10;;
51836;SDS011;38941;53.254;6.600;2022-07-22T08:07:53;3.42;;;0.75;;
51836;SDS011;38941;53.254;6.600;2022-07-22T08:09:54;2.53;;;0.70;;
51836;SDS011;38941;53.254;6.600;2022-07-22T08:11:55;3.13;;;0.40;;
51836;SDS011;38941;53.254;6.600;2022-07-22T08:13:57;6.18;;;1.15;;
51836;SDS011;38941;53.254;6.600;2022-07-22T08:15:57;1.30;;;0.50;;
51836;SDS011;38941;53.254;6.600;2022-07-22T08:17:58;6.20;;;0.50;;
51836;SDS011;38941;53.254;6.600;2022-07-22T08:19:59;3.58;;;0.68;;
51836;SDS011;38941;53.254;6.600;2022-07-22T08:22:00;4.38;;;0.95;;
51836;SDS011;38941;53.254;6.600;2022-07-22T08:24:00;3.13;;;0.50;;
51836;SDS011;38941;53.254;6.600;2022-07-22T08:26:01;5.07;;;0.60;;
51836;SDS011;38941;53.254;6.600;2022-07-22T08:28:02;5.32;;;0.95;;
51836;SDS011;38941;53.254;6.600;2022-07-22T08:30:04;5.20;;;1.23;;
51836;SDS011;38941;53.254;6.600;2022-07-22T08:32:05;2.00;;;0.52;;
51836;SDS011;38941;53.254;6.600;2022-07-22T08:34:06;7.53;;;0.80;;
51836;SDS011;38941;53.254;6.600;2022-07-22T08:36:07;4.82;;;0.73;;
51836;SDS011;38941;53.254;6.600;2022-07-22T08:38:08;7.75;;;0.77;;
51836;SDS011;38941;53.254;6.600;2022-07-22T08:40:09;5.50;;;0.80;;
51836;SDS011;38941;53.254;6.600;2022-07-22T08:42:10;2.35;;;0.60;;
51836;SDS011;38941;53.254;6.600;2022-07-22T08:44:13;6.68;;;0.65;;
51836;SDS011;38941;53.254;6.600;2022-07-22T08:46:14;3.72;;;1.23;;
51836;SDS011;38941;53.254;6.600;2022-07-22T08:48:16;9.25;;;0.70;;
51836;SDS011;38941;53.254;6.600;2022-07-22T08:50:17;4.93;;;1.00;;
51836;SDS011;38941;53.254;6.600;2022-07-22T08:52:18;3.65;;;0.70;;
51836;SDS011;38941;53.254;6.600;2022-07-22T08:54:19;1.80;;;0.80;;
51836;SDS011;38941;53.254;6.600;2022-07-22T08:56:19;2.47;;;0.70;;
51836;SDS011;38941;53.254;6.600;2022-07-22T08:58:21;7.63;;;1.50;;
51836;SDS011;38941;53.254;6.600;2022-07-22T09:00:22;2.22;;;0.90;;
51836;SDS011;38941;53.254;6.600;2022-07-22T09:02:23;3.80;;;0.63;;
51836;SDS011;38941;53.254;6.600;2022-07-22T09:04:24;4.25;;;0.70;;
51836;SDS011;38941;53.254;6.600;2022-07-22T09:06:26;2.97;;;0.90;;
51836;SDS011;38941;53.254;6.600;2022-07-22T09:08:35;2.60;;;0.68;;
51836;SDS011;38941;53.254;6.600;2022-07-22T09:10:51;1.75;;;0.70;;
51836;SDS011;38941;53.254;6.600;2022-07-22T09:12:53;2.75;;;0.68;;
51836;SDS011;38941;53.254;6.600;2022-07-22T09:14:59;4.00;;;0.93;;
51836;SDS011;38941;53.254;6.600;2022-07-22T09:17:01;3.72;;;0.98;;
51836;SDS011;38941;53.254;6.600;2022-07-22T09:19:02;1.95;;;0.90;;
51836;SDS011;38941;53.254;6.600;2022-07-22T09:21:03;3.65;;;0.70;;
51836;SDS011;38941;53.254;6.600;2022-07-22T09:23:16;3.33;;;0.98;;
51836;SDS011;38941;53.254;6.600;2022-07-22T09:25:27;4.22;;;0.60;;
51836;SDS011;38941;53.254;6.600;2022-07-22T09:27:33;2.03;;;0.65;;
51836;SDS011;38941;53.254;6.600;2022-07-22T09:29:34;1.92;;;0.70;;
51836;SDS011;38941;53.254;6.600;2022-07-22T09:31:35;5.40;;;0.98;;
51836;SDS011;38941;53.254;6.600;2022-07-22T09:33:37;3.78;;;1.05;;
51836;SDS011;38941;53.254;6.600;2022-07-22T09:35:39;2.17;;;0.88;;
51836;SDS011;38941;53.254;6.600;2022-07-22T09:38:14;4.32;;;1.00;;
51836;SDS011;38941;53.254;6.600;2022-07-22T09:40:13;2.05;;;0.70;;
51836;SDS011;38941;53.254;6.600;2022-07-22T09:42:21;2.78;;;0.50;;
51836;SDS011;38941;53.254;6.600;2022-07-22T09:44:22;4.40;;;0.70;;
51836;SDS011;38941;53.254;6.600;2022-07-22T09:46:32;2.10;;;0.60;;
51836;SDS011;38941;53.254;6.600;2022-07-22T09:48:38;2.67;;;0.68;;
51836;SDS011;38941;53.254;6.600;2022-07-22T09:50:39;4.15;;;0.60;;
51836;SDS011;38941;53.254;6.600;2022-07-22T09:52:40;3.03;;;0.75;;
51836;SDS011;38941;53.254;6.600;2022-07-22T09:54:42;1.25;;;0.50;;
51836;SDS011;38941;53.254;6.600;2022-07-22T09:56:44;4.82;;;0.75;;
51836;SDS011;38941;53.254;6.600;2022-07-22T09:58:45;6.28;;;1.58;;
51836;SDS011;38941;53.254;6.600;2022-07-22T10:00:46;2.45;;;0.60;;
51836;SDS011;38941;53.254;6.600;2022-07-22T10:02:48;2.67;;;0.50;;
51836;SDS011;38941;53.254;6.600;2022-07-22T10:04:49;1.55;;;0.50;;
51836;SDS011;38941;53.254;6.600;2022-07-22T10:06:50;1.23;;;0.50;;
51836;SDS011;38941;53.254;6.600;2022-07-22T10:08:54;3.28;;;0.50;;
51836;SDS011;38941;53.254;6.600;2022-07-22T10:10:58;4.65;;;0.55;;
51836;SDS011;38941;53.254;6.600;2022-07-22T10:13:03;3.45;;;1.50;;
51836;SDS011;38941;53.254;6.600;2022-07-22T10:15:05;4.50;;;0.50;;
51836;SDS011;38941;53.254;6.600;2022-07-22T10:17:08;1.45;;;0.50;;
51836;SDS011;38941;53.254;6.600;2022-07-22T10:19:09;4.53;;;1.08;;
51836;SDS011;38941;53.254;6.600;2022-07-22T10:21:11;1.85;;;0.40;;
51836;SDS011;38941;53.254;6.600;2022-07-22T10:23:12;1.70;;;0.60;;
51836;SDS011;38941;53.254;6.600;2022-07-22T10:25:15;3.58;;;0.70;;
51836;SDS011;38941;53.254;6.600;2022-07-22T10:27:38;6.70;;;1.85;;
51836;SDS011;38941;53.254;6.600;2022-07-22T10:29:46;5.25;;;0.60;;
51836;SDS011;38941;53.254;6.600;2022-07-22T10:31:48;2.15;;;0.70;;
51836;SDS011;38941;53.254;6.600;2022-07-22T10:33:50;3.50;;;0.88;;
51836;SDS011;38941;53.254;6.600;2022-07-22T10:35:54;1.60;;;0.60;;
51836;SDS011;38941;53.254;6.600;2022-07-22T10:37:56;3.05;;;0.50;;
51836;SDS011;38941;53.254;6.600;2022-07-22T10:40:44;2.97;;;0.32;;
51836;SDS011;38941;53.254;6.600;2022-07-22T10:43:02;3.08;;;0.50;;
51836;SDS011;38941;53.254;6.600;2022-07-22T10:45:07;2.47;;;0.50;;
51836;SDS011;38941;53.254;6.600;2022-07-22T10:47:09;3.17;;;0.55;;
51836;SDS011;38941;53.254;6.600;2022-07-22T10:49:10;2.28;;;0.88;;
51836;SDS011;38941;53.254;6.600;2022-07-22T10:51:12;3.75;;;0.35;;
51836;SDS011;38941;53.254;6.600;2022-07-22T10:53:25;0.55;;;0.35;;
51836;SDS011;38941;53.254;6.600;2022-07-22T10:56:12;4.28;;;0.60;;
51836;SDS011;38941;53.254;6.600;2022-07-22T11:00:35;2.13;;;0.60;;
51836;SDS011;38941;53.254;6.600;2022-07-22T11:02:37;1.52;;;0.38;;
51836;SDS011;38941;53.254;6.600;2022-07-22T11:04:38;0.82;;;0.40;;
51836;SDS011;38941;53.254;6.600;2022-07-22T11:06:39;2.88;;;0.60;;
51836;SDS011;38941;53.254;6.600;2022-07-22T11:08:40;0.90;;;0.30;;
51836;SDS011;38941;53.254;6.600;2022-07-22T11:10:48;2.42;;;0.50;;
51836;SDS011;38941;53.254;6.600;2022-07-22T11:12:50;2.03;;;0.25;;
51836;SDS011;38941;53.254;6.600;2022-07-22T11:14:50;0.63;;;0.30;;
51836;SDS011;38941;53.254;6.600;2022-07-22T11:16:52;1.70;;;0.32;;
51836;SDS011;38941;53.254;6.600;2022-07-22T11:19:01;2.15;;;0.50;;
51836;SDS011;38941;53.254;6.600;2022-07-22T11:21:02;1.63;;;0.55;;
51836;SDS011;38941;53.254;6.600;2022-07-22T11:23:03;1.63;;;0.55;;
51836;SDS011;38941;53.254;6.600;2022-07-22T11:25:05;1.30;;;0.45;;
51836;SDS011;38941;53.254;6.600;2022-07-22T11:27:15;2.33;;;0.40;;
51836;SDS011;38941;53.254;6.600;2022-07-22T11:31:24;3.20;;;0.57;;
51836;SDS011;38941;53.254;6.600;2022-07-22T11:33:25;0.60;;;0.40;;
51836;SDS011;38941;53.254;6.600;2022-07-22T11:35:25;0.93;;;0.38;;
51836;SDS011;38941;53.254;6.600;2022-07-22T11:37:26;0.70;;;0.20;;
51836;SDS011;38941;53.254;6.600;2022-07-22T11:39:29;3.50;;;0.50;;
51836;SDS011;38941;53.254;6.600;2022-07-22T11:41:30;2.00;;;0.47;;
51836;SDS011;38941;53.254;6.600;2022-07-22T11:43:45;0.95;;;0.30;;
51836;SDS011;38941;53.254;6.600;2022-07-22T11:45:55;2.92;;;0.30;;
51836;SDS011;38941;53.254;6.600;2022-07-22T11:48:07;3.50;;;0.32;;
51836;SDS011;38941;53.254;6.600;2022-07-22T11:50:09;3.60;;;0.50;;
51836;SDS011;38941;53.254;6.600;2022-07-22T11:52:10;3.35;;;0.52;;
51836;SDS011;38941;53.254;6.600;2022-07-22T11:54:15;1.88;;;1.15;;
51836;SDS011;38941;53.254;6.600;2022-07-22T11:56:16;2.33;;;0.47;;
51836;SDS011;38941;53.254;6.600;2022-07-22T11:58:17;3.65;;;0.50;;
51836;SDS011;38941;53.254;6.600;2022-07-22T12:00:18;2.15;;;0.50;;
51836;SDS011;38941;53.254;6.600;2022-07-22T12:02:19;1.58;;;0.40;;
51836;SDS011;38941;53.254;6.600;2022-07-22T12:04:24;0.82;;;0.40;;
51836;SDS011;38941;53.254;6.600;2022-07-22T12:06:26;2.97;;;1.05;;
51836;SDS011;38941;53.254;6.600;2022-07-22T12:08:28;1.83;;;0.30;;
51836;SDS011;38941;53.254;6.600;2022-07-22T12:10:29;0.57;;;0.30;;
51836;SDS011;38941;53.254;6.600;2022-07-22T12:12:40;0.82;;;0.43;;
51836;SDS011;38941;53.254;6.600;2022-07-22T12:14:44;0.50;;;0.30;;
51836;SDS011;38941;53.254;6.600;2022-07-22T12:17:01;1.17;;;0.38;;
51836;SDS011;38941;53.254;6.600;2022-07-22T12:19:09;1.98;;;0.40;;
51836;SDS011;38941;53.254;6.600;2022-07-22T12:21:11;2.67;;;0.50;;